Terminal Aerodrome Forecast
Issued by NWS

Home | Current Version | Previous Version | Text Only | Print | Product List | Glossary On
Versions: 1 2 3 4 5 6 7 8 9 10 11 12
000
FTUS45 KVEF 241120
TAFBIH
TAF
KBIH 241120Z 2412/2512 33008KT P6SM SCT250
     FM242000 17009KT P6SM SCT100 BKN250
     FM250400 34006KT P6SM SCT100 BKN200=

USA.gov is the U.S. government's official web portal to all federal, state and local government web resources and services.